sensor_id;sensor_type;location;lat;lon;timestamp;pressure;altitude;pressure_sealevel;temperature;humidity
56689;BME280;42565;53.342;-1.534;2022-08-19T00:02:02;98465.10;;;20.53;57.64
56689;BME280;42565;53.342;-1.534;2022-08-19T00:04:35;98464.20;;;20.44;57.83
56689;BME280;42565;53.342;-1.534;2022-08-19T00:07:04;98468.30;;;19.82;57.49
56689;BME280;42565;53.342;-1.534;2022-08-19T00:09:32;98472.76;;;20.46;56.84
56689;BME280;42565;53.342;-1.534;2022-08-19T00:12:00;98467.80;;;20.55;56.31
56689;BME280;42565;53.342;-1.534;2022-08-19T00:14:28;98467.62;;;20.54;57.02
56689;BME280;42565;53.342;-1.534;2022-08-19T00:16:55;98468.64;;;20.72;55.94
56689;BME280;42565;53.342;-1.534;2022-08-19T00:19:23;98474.03;;;20.61;56.05
56689;BME280;42565;53.342;-1.534;2022-08-19T00:21:51;98469.79;;;20.72;55.68
56689;BME280;42565;53.342;-1.534;2022-08-19T00:24:18;98473.00;;;20.64;54.99
56689;BME280;42565;53.342;-1.534;2022-08-19T00:26:46;98481.32;;;21.09;54.73
56689;BME280;42565;53.342;-1.534;2022-08-19T00:29:15;98489.53;;;20.67;55.30
56689;BME280;42565;53.342;-1.534;2022-08-19T00:31:44;98492.68;;;20.25;54.67
56689;BME280;42565;53.342;-1.534;2022-08-19T00:34:12;98500.27;;;19.62;55.03
56689;BME280;42565;53.342;-1.534;2022-08-19T00:36:40;98493.25;;;20.27;54.45
56689;BME280;42565;53.342;-1.534;2022-08-19T00:39:08;98503.76;;;19.41;55.75
56689;BME280;42565;53.342;-1.534;2022-08-19T00:41:35;98510.60;;;20.32;54.22
56689;BME280;42565;53.342;-1.534;2022-08-19T00:44:05;98507.46;;;20.15;53.36
56689;BME280;42565;53.342;-1.534;2022-08-19T00:46:34;98503.49;;;20.57;52.61
56689;BME280;42565;53.342;-1.534;2022-08-19T00:49:06;98513.05;;;20.52;52.35
56689;BME280;42565;53.342;-1.534;2022-08-19T00:51:36;98509.61;;;20.62;51.64
56689;BME280;42565;53.342;-1.534;2022-08-19T00:54:04;98509.35;;;20.39;51.66
56689;BME280;42565;53.342;-1.534;2022-08-19T00:56:32;98502.78;;;20.29;51.11
56689;BME280;42565;53.342;-1.534;2022-08-19T00:59:00;98507.34;;;20.10;51.00
56689;BME280;42565;53.342;-1.534;2022-08-19T01:01:27;98505.53;;;19.53;50.87
56689;BME280;42565;53.342;-1.534;2022-08-19T01:03:55;98506.91;;;19.85;50.03
56689;BME280;42565;53.342;-1.534;2022-08-19T01:06:23;98504.62;;;19.96;49.24
56689;BME280;42565;53.342;-1.534;2022-08-19T01:08:50;98508.68;;;19.92;50.03
56689;BME280;42565;53.342;-1.534;2022-08-19T01:11:17;98509.88;;;19.33;51.08
56689;BME280;42565;53.342;-1.534;2022-08-19T01:13:45;98507.47;;;19.15;51.11
56689;BME280;42565;53.342;-1.534;2022-08-19T01:16:13;98510.15;;;18.98;49.50
56689;BME280;42565;53.342;-1.534;2022-08-19T01:18:42;98507.92;;;19.36;49.44
56689;BME280;42565;53.342;-1.534;2022-08-19T01:21:15;98507.89;;;18.60;49.41
56689;BME280;42565;53.342;-1.534;2022-08-19T01:23:45;98515.41;;;18.90;48.31
56689;BME280;42565;53.342;-1.534;2022-08-19T01:26:15;98517.95;;;18.91;47.97
56689;BME280;42565;53.342;-1.534;2022-08-19T01:28:43;98521.38;;;19.52;47.49
56689;BME280;42565;53.342;-1.534;2022-08-19T01:31:18;98527.82;;;18.60;48.06
56689;BME280;42565;53.342;-1.534;2022-08-19T01:33:45;98524.16;;;19.18;47.46
56689;BME280;42565;53.342;-1.534;2022-08-19T01:36:23;98524.37;;;19.31;47.04
56689;BME280;42565;53.342;-1.534;2022-08-19T01:38:51;98530.61;;;18.94;47.62
56689;BME280;42565;53.342;-1.534;2022-08-19T01:41:18;98534.82;;;18.87;47.29
56689;BME280;42565;53.342;-1.534;2022-08-19T01:43:45;98538.40;;;19.05;47.31
56689;BME280;42565;53.342;-1.534;2022-08-19T01:46:12;98533.35;;;19.31;46.62
56689;BME280;42565;53.342;-1.534;2022-08-19T01:48:41;98524.92;;;19.43;46.44
56689;BME280;42565;53.342;-1.534;2022-08-19T01:51:10;98533.84;;;19.28;46.13
56689;BME280;42565;53.342;-1.534;2022-08-19T01:53:38;98530.16;;;19.06;47.37
56689;BME280;42565;53.342;-1.534;2022-08-19T01:56:06;98529.97;;;17.99;47.55
56689;BME280;42565;53.342;-1.534;2022-08-19T01:58:37;98537.08;;;19.67;46.21
56689;BME280;42565;53.342;-1.534;2022-08-19T02:01:06;98541.41;;;18.77;46.71
56689;BME280;42565;53.342;-1.534;2022-08-19T02:03:34;98550.95;;;19.06;47.42
56689;BME280;42565;53.342;-1.534;2022-08-19T02:06:03;98551.24;;;18.78;47.36
56689;BME280;42565;53.342;-1.534;2022-08-19T02:08:31;98549.53;;;18.85;47.93
56689;BME280;42565;53.342;-1.534;2022-08-19T02:10:59;98552.57;;;18.65;48.52
56689;BME280;42565;53.342;-1.534;2022-08-19T02:13:27;98558.69;;;17.94;50.26
56689;BME280;42565;53.342;-1.534;2022-08-19T02:15:54;98555.07;;;18.51;50.42
56689;BME280;42565;53.342;-1.534;2022-08-19T02:18:22;98555.44;;;17.76;50.70
56689;BME280;42565;53.342;-1.534;2022-08-19T02:20:48;98566.95;;;17.96;50.51
56689;BME280;42565;53.342;-1.534;2022-08-19T02:23:17;98566.86;;;17.64;51.85
56689;BME280;42565;53.342;-1.534;2022-08-19T02:25:46;98573.78;;;18.10;50.68
56689;BME280;42565;53.342;-1.534;2022-08-19T02:28:13;98575.71;;;17.91;50.20
56689;BME280;42565;53.342;-1.534;2022-08-19T02:30:41;98576.14;;;18.67;49.60
56689;BME280;42565;53.342;-1.534;2022-08-19T02:33:08;98578.65;;;18.16;49.44
56689;BME280;42565;53.342;-1.534;2022-08-19T02:35:35;98576.49;;;18.89;49.55
56689;BME280;42565;53.342;-1.534;2022-08-19T02:38:02;98574.61;;;18.77;48.29
56689;BME280;42565;53.342;-1.534;2022-08-19T02:40:31;98569.54;;;19.16;48.17
56689;BME280;42565;53.342;-1.534;2022-08-19T02:42:58;98567.11;;;19.32;47.40
56689;BME280;42565;53.342;-1.534;2022-08-19T02:45:26;98567.42;;;18.73;48.26
56689;BME280;42565;53.342;-1.534;2022-08-19T02:47:52;98569.81;;;19.17;46.82
56689;BME280;42565;53.342;-1.534;2022-08-19T02:50:19;98574.67;;;18.98;46.34
56689;BME280;42565;53.342;-1.534;2022-08-19T02:52:46;98573.92;;;18.71;47.07
56689;BME280;42565;53.342;-1.534;2022-08-19T02:55:13;98582.18;;;19.21;45.85
56689;BME280;42565;53.342;-1.534;2022-08-19T02:57:40;98585.78;;;19.10;45.61
56689;BME280;42565;53.342;-1.534;2022-08-19T03:00:08;98583.77;;;18.41;46.98
56689;BME280;42565;53.342;-1.534;2022-08-19T03:02:35;98583.11;;;18.58;46.82
56689;BME280;42565;53.342;-1.534;2022-08-19T03:05:03;98582.71;;;17.99;47.96
56689;BME280;42565;53.342;-1.534;2022-08-19T03:07:31;98593.44;;;19.01;47.37
56689;BME280;42565;53.342;-1.534;2022-08-19T03:09:59;98594.06;;;18.88;47.20
56689;BME280;42565;53.342;-1.534;2022-08-19T03:12:26;98594.27;;;18.96;47.09
56689;BME280;42565;53.342;-1.534;2022-08-19T03:14:52;98596.50;;;18.81;47.66
56689;BME280;42565;53.342;-1.534;2022-08-19T03:17:20;98595.96;;;18.84;46.53
56689;BME280;42565;53.342;-1.534;2022-08-19T03:19:47;98595.88;;;18.85;47.30
56689;BME280;42565;53.342;-1.534;2022-08-19T03:22:14;98603.10;;;18.58;47.32
56689;BME280;42565;53.342;-1.534;2022-08-19T03:24:41;98604.04;;;18.04;48.92
56689;BME280;42565;53.342;-1.534;2022-08-19T03:27:07;98597.97;;;17.78;48.83
56689;BME280;42565;53.342;-1.534;2022-08-19T03:29:37;98600.90;;;18.25;47.23
56689;BME280;42565;53.342;-1.534;2022-08-19T03:32:05;98601.67;;;17.63;48.30
56689;BME280;42565;53.342;-1.534;2022-08-19T03:34:34;98605.75;;;18.66;46.69
56689;BME280;42565;53.342;-1.534;2022-08-19T03:37:05;98604.26;;;18.10;47.21
56689;BME280;42565;53.342;-1.534;2022-08-19T03:39:35;98608.41;;;18.32;46.76
56689;BME280;42565;53.342;-1.534;2022-08-19T03:42:03;98601.16;;;17.70;45.86
56689;BME280;42565;53.342;-1.534;2022-08-19T03:44:31;98603.04;;;18.39;46.20
56689;BME280;42565;53.342;-1.534;2022-08-19T03:47:00;98605.21;;;19.10;45.76
56689;BME280;42565;53.342;-1.534;2022-08-19T03:49:30;98608.03;;;18.15;45.82
56689;BME280;42565;53.342;-1.534;2022-08-19T03:51:59;98611.81;;;18.90;46.06
56689;BME280;42565;53.342;-1.534;2022-08-19T03:54:27;98615.81;;;18.82;44.74
56689;BME280;42565;53.342;-1.534;2022-08-19T03:56:55;98620.55;;;18.79;45.29
56689;BME280;42565;53.342;-1.534;2022-08-19T03:59:25;98615.67;;;17.77;46.41
56689;BME280;42565;53.342;-1.534;2022-08-19T04:01:53;98618.04;;;18.39;46.05
56689;BME280;42565;53.342;-1.534;2022-08-19T04:04:20;98613.02;;;18.15;46.06
56689;BME280;42565;53.342;-1.534;2022-08-19T04:06:47;98612.59;;;18.30;46.54
56689;BME280;42565;53.342;-1.534;2022-08-19T04:09:15;98611.87;;;18.06;46.75
56689;BME280;42565;53.342;-1.534;2022-08-19T04:11:46;98616.15;;;18.11;46.44
56689;BME280;42565;53.342;-1.534;2022-08-19T04:14:17;98618.73;;;18.08;46.55
56689;BME280;42565;53.342;-1.534;2022-08-19T04:16:45;98620.86;;;18.38;46.36
56689;BME280;42565;53.342;-1.534;2022-08-19T04:19:13;98622.36;;;17.77;46.36
56689;BME280;42565;53.342;-1.534;2022-08-19T04:21:43;98624.96;;;18.19;46.54
56689;BME280;42565;53.342;-1.534;2022-08-19T04:24:12;98630.28;;;18.00;46.59
56689;BME280;42565;53.342;-1.534;2022-08-19T04:26:40;98637.44;;;17.94;46.95
56689;BME280;42565;53.342;-1.534;2022-08-19T04:29:11;98639.80;;;17.74;46.52
56689;BME280;42565;53.342;-1.534;2022-08-19T04:31:40;98635.87;;;17.81;47.14
56689;BME280;42565;53.342;-1.534;2022-08-19T04:34:09;98636.36;;;17.52;46.78
56689;BME280;42565;53.342;-1.534;2022-08-19T04:36:38;98637.25;;;17.69;46.91
56689;BME280;42565;53.342;-1.534;2022-08-19T04:39:08;98639.80;;;17.31;46.75
56689;BME280;42565;53.342;-1.534;2022-08-19T04:41:36;98643.73;;;17.87;47.10
56689;BME280;42565;53.342;-1.534;2022-08-19T04:44:04;98649.45;;;17.56;46.68
56689;BME280;42565;53.342;-1.534;2022-08-19T04:46:31;98648.17;;;17.84;47.01
56689;BME280;42565;53.342;-1.534;2022-08-19T04:48:59;98645.57;;;17.48;46.87
56689;BME280;42565;53.342;-1.534;2022-08-19T04:51:27;98654.40;;;18.04;46.52
56689;BME280;42565;53.342;-1.534;2022-08-19T04:53:54;98657.16;;;18.16;46.29
56689;BME280;42565;53.342;-1.534;2022-08-19T04:56:21;98657.80;;;17.84;46.07
56689;BME280;42565;53.342;-1.534;2022-08-19T04:58:49;98661.11;;;18.02;46.40
56689;BME280;42565;53.342;-1.534;2022-08-19T05:01:19;98664.60;;;18.59;45.37
56689;BME280;42565;53.342;-1.534;2022-08-19T05:03:47;98667.23;;;18.35;45.49
56689;BME280;42565;53.342;-1.534;2022-08-19T05:06:16;98670.52;;;18.44;45.57
56689;BME280;42565;53.342;-1.534;2022-08-19T05:08:44;98671.00;;;18.37;46.01
56689;BME280;42565;53.342;-1.534;2022-08-19T05:11:14;98670.19;;;18.03;46.38
56689;BME280;42565;53.342;-1.534;2022-08-19T05:13:43;98673.83;;;18.15;46.99
56689;BME280;42565;53.342;-1.534;2022-08-19T05:16:11;98676.14;;;18.23;47.14
56689;BME280;42565;53.342;-1.534;2022-08-19T05:18:40;98678.39;;;17.87;47.78
56689;BME280;42565;53.342;-1.534;2022-08-19T05:21:07;98677.64;;;17.64;46.97
56689;BME280;42565;53.342;-1.534;2022-08-19T05:23:34;98677.02;;;18.15;47.06
56689;BME280;42565;53.342;-1.534;2022-08-19T05:26:02;98681.56;;;17.76;46.46
56689;BME280;42565;53.342;-1.534;2022-08-19T05:28:30;98687.78;;;17.75;46.87
56689;BME280;42565;53.342;-1.534;2022-08-19T05:30:57;98695.66;;;17.84;47.12
56689;BME280;42565;53.342;-1.534;2022-08-19T05:33:24;98698.01;;;17.27;47.41
56689;BME280;42565;53.342;-1.534;2022-08-19T05:35:51;98701.06;;;17.79;47.37
56689;BME280;42565;53.342;-1.534;2022-08-19T05:38:18;98704.57;;;17.58;46.86
56689;BME280;42565;53.342;-1.534;2022-08-19T05:40:45;98708.37;;;18.04;47.30
56689;BME280;42565;53.342;-1.534;2022-08-19T05:43:13;98711.12;;;17.49;47.05
56689;BME280;42565;53.342;-1.534;2022-08-19T05:45:40;98711.53;;;17.72;47.28
56689;BME280;42565;53.342;-1.534;2022-08-19T05:48:08;98709.10;;;17.52;46.95
56689;BME280;42565;53.342;-1.534;2022-08-19T05:50:36;98709.47;;;17.26;48.05
56689;BME280;42565;53.342;-1.534;2022-08-19T05:53:03;98710.12;;;16.84;48.15
56689;BME280;42565;53.342;-1.534;2022-08-19T05:55:31;98711.89;;;16.50;49.44
56689;BME280;42565;53.342;-1.534;2022-08-19T05:57:59;98706.56;;;17.12;48.64
56689;BME280;42565;53.342;-1.534;2022-08-19T06:00:26;98708.58;;;17.40;48.32
56689;BME280;42565;53.342;-1.534;2022-08-19T06:02:52;98709.44;;;17.61;48.22
56689;BME280;42565;53.342;-1.534;2022-08-19T06:05:20;98705.22;;;17.15;48.30
56689;BME280;42565;53.342;-1.534;2022-08-19T06:07:47;98705.10;;;17.02;48.65
56689;BME280;42565;53.342;-1.534;2022-08-19T06:10:14;98701.97;;;17.29;48.03
56689;BME280;42565;53.342;-1.534;2022-08-19T06:12:42;98703.59;;;17.60;47.57
56689;BME280;42565;53.342;-1.534;2022-08-19T06:15:11;98706.71;;;16.52;49.05
56689;BME280;42565;53.342;-1.534;2022-08-19T06:17:39;98707.47;;;16.81;48.86
56689;BME280;42565;53.342;-1.534;2022-08-19T06:20:09;98709.62;;;16.43;49.63
56689;BME280;42565;53.342;-1.534;2022-08-19T06:22:38;98715.57;;;17.20;48.67
56689;BME280;42565;53.342;-1.534;2022-08-19T06:25:07;98724.97;;;16.01;49.42
56689;BME280;42565;53.342;-1.534;2022-08-19T06:27:34;98726.14;;;16.55;49.52
56689;BME280;42565;53.342;-1.534;2022-08-19T06:30:03;98724.66;;;16.69;49.37
56689;BME280;42565;53.342;-1.534;2022-08-19T06:32:31;98721.43;;;16.86;49.06
56689;BME280;42565;53.342;-1.534;2022-08-19T06:34:59;98720.14;;;16.81;49.78
56689;BME280;42565;53.342;-1.534;2022-08-19T06:37:26;98716.69;;;16.66;49.98
56689;BME280;42565;53.342;-1.534;2022-08-19T06:39:53;98713.40;;;17.04;49.41
56689;BME280;42565;53.342;-1.534;2022-08-19T06:42:20;98716.24;;;16.57;49.71
56689;BME280;42565;53.342;-1.534;2022-08-19T06:44:47;98716.46;;;17.04;48.71
56689;BME280;42565;53.342;-1.534;2022-08-19T06:47:19;98714.22;;;17.79;46.86
56689;BME280;42565;53.342;-1.534;2022-08-19T06:49:47;98716.52;;;18.33;46.04
56689;BME280;42565;53.342;-1.534;2022-08-19T06:53:00;98718.41;;;18.01;46.56
56689;BME280;42565;53.342;-1.534;2022-08-19T06:55:27;98718.56;;;17.56;46.84
56689;BME280;42565;53.342;-1.534;2022-08-19T06:57:55;98718.41;;;17.58;47.16
56689;BME280;42565;53.342;-1.534;2022-08-19T07:00:22;98726.77;;;17.65;46.45
56689;BME280;42565;53.342;-1.534;2022-08-19T07:02:49;98725.17;;;17.62;47.01
56689;BME280;42565;53.342;-1.534;2022-08-19T07:05:16;98729.41;;;17.62;47.18
56689;BME280;42565;53.342;-1.534;2022-08-19T07:07:44;98735.74;;;17.22;48.26
56689;BME280;42565;53.342;-1.534;2022-08-19T07:10:11;98734.13;;;16.25;48.82
56689;BME280;42565;53.342;-1.534;2022-08-19T07:12:39;98739.61;;;17.42;48.15
56689;BME280;42565;53.342;-1.534;2022-08-19T07:15:07;98741.71;;;16.76;47.58
56689;BME280;42565;53.342;-1.534;2022-08-19T07:17:35;98743.91;;;17.71;47.51
56689;BME280;42565;53.342;-1.534;2022-08-19T07:20:04;98742.60;;;17.09;46.69
56689;BME280;42565;53.342;-1.534;2022-08-19T07:22:32;98743.79;;;17.75;46.75
56689;BME280;42565;53.342;-1.534;2022-08-19T07:25:00;98742.51;;;17.72;47.15
56689;BME280;42565;53.342;-1.534;2022-08-19T07:27:27;98743.46;;;17.93;47.12
56689;BME280;42565;53.342;-1.534;2022-08-19T07:29:53;98747.85;;;17.34;47.70
56689;BME280;42565;53.342;-1.534;2022-08-19T07:33:03;98746.86;;;17.51;47.20
56689;BME280;42565;53.342;-1.534;2022-08-19T07:35:31;98747.69;;;18.21;45.79
56689;BME280;42565;53.342;-1.534;2022-08-19T07:37:59;98747.73;;;18.08;46.42
56689;BME280;42565;53.342;-1.534;2022-08-19T07:40:26;98749.69;;;18.40;44.93
56689;BME280;42565;53.342;-1.534;2022-08-19T07:42:53;98748.52;;;18.41;44.97
56689;BME280;42565;53.342;-1.534;2022-08-19T07:45:20;98750.33;;;18.39;44.81
56689;BME280;42565;53.342;-1.534;2022-08-19T07:47:48;98753.57;;;19.36;43.48
56689;BME280;42565;53.342;-1.534;2022-08-19T07:50:15;98761.83;;;18.80;43.48
56689;BME280;42565;53.342;-1.534;2022-08-19T07:53:03;98760.34;;;18.16;42.69
56689;BME280;42565;53.342;-1.534;2022-08-19T07:55:30;98757.35;;;18.46;43.20
56689;BME280;42565;53.342;-1.534;2022-08-19T07:57:58;98758.43;;;18.74;42.41
56689;BME280;42565;53.342;-1.534;2022-08-19T08:00:26;98762.93;;;18.72;44.77
56689;BME280;42565;53.342;-1.534;2022-08-19T08:02:53;98771.60;;;19.26;42.70
56689;BME280;42565;53.342;-1.534;2022-08-19T08:05:20;98775.77;;;18.82;42.77
56689;BME280;42565;53.342;-1.534;2022-08-19T08:07:47;98782.29;;;19.12;41.99
56689;BME280;42565;53.342;-1.534;2022-08-19T08:10:14;98782.36;;;18.88;41.40
56689;BME280;42565;53.342;-1.534;2022-08-19T08:12:42;98784.16;;;18.99;42.31
56689;BME280;42565;53.342;-1.534;2022-08-19T08:15:12;98777.46;;;18.58;42.64
56689;BME280;42565;53.342;-1.534;2022-08-19T08:17:40;98783.22;;;18.79;42.40
56689;BME280;42565;53.342;-1.534;2022-08-19T08:20:08;98782.07;;;18.49;42.32
56689;BME280;42565;53.342;-1.534;2022-08-19T08:22:44;98782.24;;;18.83;41.86
56689;BME280;42565;53.342;-1.534;2022-08-19T08:25:14;98790.35;;;18.66;41.82
56689;BME280;42565;53.342;-1.534;2022-08-19T08:27:43;98789.39;;;19.16;41.88
56689;BME280;42565;53.342;-1.534;2022-08-19T08:30:15;98781.70;;;18.28;42.77
56689;BME280;42565;53.342;-1.534;2022-08-19T08:32:42;98786.65;;;18.90;41.59
56689;BME280;42565;53.342;-1.534;2022-08-19T08:35:11;98792.10;;;19.04;40.33
56689;BME280;42565;53.342;-1.534;2022-08-19T08:37:39;98790.95;;;19.30;40.20
56689;BME280;42565;53.342;-1.534;2022-08-19T08:40:22;98793.93;;;18.64;40.52
56689;BME280;42565;53.342;-1.534;2022-08-19T08:42:55;98794.94;;;20.32;39.96
56689;BME280;42565;53.342;-1.534;2022-08-19T08:45:24;98796.14;;;20.05;39.66
56689;BME280;42565;53.342;-1.534;2022-08-19T08:47:53;98792.94;;;19.67;38.95
56689;BME280;42565;53.342;-1.534;2022-08-19T08:50:27;98785.63;;;20.15;39.46
56689;BME280;42565;53.342;-1.534;2022-08-19T08:52:57;98786.17;;;20.34;37.39
56689;BME280;42565;53.342;-1.534;2022-08-19T08:55:27;98790.76;;;20.55;37.72
56689;BME280;42565;53.342;-1.534;2022-08-19T08:57:59;98786.10;;;21.66;36.84
56689;BME280;42565;53.342;-1.534;2022-08-19T09:00:31;98788.39;;;21.58;35.88
56689;BME280;42565;53.342;-1.534;2022-08-19T09:03:00;98789.55;;;21.62;35.56
56689;BME280;42565;53.342;-1.534;2022-08-19T09:05:35;98794.88;;;22.16;35.46
56689;BME280;42565;53.342;-1.534;2022-08-19T09:08:10;98797.95;;;21.29;35.12
56689;BME280;42565;53.342;-1.534;2022-08-19T09:10:46;98795.53;;;21.44;34.94
56689;BME280;42565;53.342;-1.534;2022-08-19T09:13:24;98795.94;;;20.87;34.62
56689;BME280;42565;53.342;-1.534;2022-08-19T09:16:00;98801.69;;;21.60;35.27
56689;BME280;42565;53.342;-1.534;2022-08-19T09:18:40;98798.08;;;21.25;33.90
56689;BME280;42565;53.342;-1.534;2022-08-19T09:21:07;98803.29;;;20.97;33.70
56689;BME280;42565;53.342;-1.534;2022-08-19T09:23:34;98801.63;;;20.97;33.85
56689;BME280;42565;53.342;-1.534;2022-08-19T09:26:04;98806.73;;;20.09;34.79
56689;BME280;42565;53.342;-1.534;2022-08-19T09:28:33;98808.95;;;20.49;35.27
56689;BME280;42565;53.342;-1.534;2022-08-19T09:31:00;98810.08;;;21.06;34.57
56689;BME280;42565;53.342;-1.534;2022-08-19T09:33:27;98804.63;;;20.40;35.39
56689;BME280;42565;53.342;-1.534;2022-08-19T09:36:03;98811.15;;;20.14;35.95
56689;BME280;42565;53.342;-1.534;2022-08-19T09:38:30;98809.59;;;19.58;36.61
56689;BME280;42565;53.342;-1.534;2022-08-19T09:41:02;98811.29;;;20.04;37.24
56689;BME280;42565;53.342;-1.534;2022-08-19T09:43:30;98816.45;;;20.77;34.25
56689;BME280;42565;53.342;-1.534;2022-08-19T09:45:58;98801.42;;;20.38;33.98
56689;BME280;42565;53.342;-1.534;2022-08-19T09:48:25;98798.43;;;20.08;35.07
56689;BME280;42565;53.342;-1.534;2022-08-19T09:50:53;98802.80;;;20.89;36.25
56689;BME280;42565;53.342;-1.534;2022-08-19T09:53:20;98804.68;;;19.72;34.23
56689;BME280;42565;53.342;-1.534;2022-08-19T09:55:48;98807.77;;;20.78;34.45
56689;BME280;42565;53.342;-1.534;2022-08-19T09:58:15;98806.49;;;20.64;33.87
56689;BME280;42565;53.342;-1.534;2022-08-19T10:00:43;98814.00;;;20.59;34.12
56689;BME280;42565;53.342;-1.534;2022-08-19T10:03:10;98821.84;;;20.52;35.39
56689;BME280;42565;53.342;-1.534;2022-08-19T10:05:38;98821.19;;;20.44;34.03
56689;BME280;42565;53.342;-1.534;2022-08-19T10:08:05;98817.64;;;20.45;32.84
56689;BME280;42565;53.342;-1.534;2022-08-19T10:10:35;98816.99;;;21.32;33.40
56689;BME280;42565;53.342;-1.534;2022-08-19T10:13:02;98816.40;;;21.47;32.02
56689;BME280;42565;53.342;-1.534;2022-08-19T10:15:30;98813.04;;;22.49;31.43
56689;BME280;42565;53.342;-1.534;2022-08-19T10:17:57;98809.63;;;22.58;30.10
56689;BME280;42565;53.342;-1.534;2022-08-19T10:20:25;98805.17;;;23.31;30.81
56689;BME280;42565;53.342;-1.534;2022-08-19T10:22:52;98813.30;;;22.56;28.96
56689;BME280;42565;53.342;-1.534;2022-08-19T10:25:19;98806.32;;;22.39;30.42
56689;BME280;42565;53.342;-1.534;2022-08-19T10:27:46;98806.28;;;22.75;30.19
56689;BME280;42565;53.342;-1.534;2022-08-19T10:30:13;98808.66;;;22.56;30.11
56689;BME280;42565;53.342;-1.534;2022-08-19T10:32:41;98811.97;;;22.29;30.39
56689;BME280;42565;53.342;-1.534;2022-08-19T10:35:08;98812.10;;;21.35;31.10
56689;BME280;42565;53.342;-1.534;2022-08-19T10:37:36;98809.85;;;21.89;30.63
56689;BME280;42565;53.342;-1.534;2022-08-19T10:40:06;98806.87;;;22.08;30.31
56689;BME280;42565;53.342;-1.534;2022-08-19T10:42:33;98812.35;;;22.30;31.15
56689;BME280;42565;53.342;-1.534;2022-08-19T10:45:00;98810.60;;;22.39;31.54
56689;BME280;42565;53.342;-1.534;2022-08-19T10:47:27;98807.55;;;22.94;30.14
56689;BME280;42565;53.342;-1.534;2022-08-19T10:49:55;98797.93;;;22.53;30.16
56689;BME280;42565;53.342;-1.534;2022-08-19T10:52:22;98806.17;;;22.03;30.32
56689;BME280;42565;53.342;-1.534;2022-08-19T10:54:49;98803.97;;;22.54;29.51
56689;BME280;42565;53.342;-1.534;2022-08-19T10:57:16;98802.87;;;21.94;30.65
56689;BME280;42565;53.342;-1.534;2022-08-19T10:59:44;98807.58;;;22.54;31.18
56689;BME280;42565;53.342;-1.534;2022-08-19T11:02:11;98801.38;;;23.18;29.92
56689;BME280;42565;53.342;-1.534;2022-08-19T11:04:40;98803.26;;;22.85;30.53
56689;BME280;42565;53.342;-1.534;2022-08-19T11:07:07;98811.32;;;22.18;29.81
56689;BME280;42565;53.342;-1.534;2022-08-19T11:09:39;98812.38;;;22.06;30.10
56689;BME280;42565;53.342;-1.534;2022-08-19T11:12:08;98812.12;;;22.24;30.42
56689;BME280;42565;53.342;-1.534;2022-08-19T11:14:36;98809.52;;;22.36;30.33
56689;BME280;42565;53.342;-1.534;2022-08-19T11:17:04;98813.41;;;21.71;29.92
56689;BME280;42565;53.342;-1.534;2022-08-19T11:19:32;98810.06;;;21.79;30.71
56689;BME280;42565;53.342;-1.534;2022-08-19T11:22:01;98809.18;;;22.11;30.83
56689;BME280;42565;53.342;-1.534;2022-08-19T11:24:28;98802.94;;;22.36;31.22
56689;BME280;42565;53.342;-1.534;2022-08-19T11:27:03;98801.87;;;22.97;30.57
56689;BME280;42565;53.342;-1.534;2022-08-19T11:29:32;98805.14;;;23.31;29.21
56689;BME280;42565;53.342;-1.534;2022-08-19T11:32:03;98805.19;;;22.97;28.92
56689;BME280;42565;53.342;-1.534;2022-08-19T11:34:30;98812.55;;;22.21;30.50
56689;BME280;42565;53.342;-1.534;2022-08-19T11:36:58;98809.82;;;21.65;30.14
56689;BME280;42565;53.342;-1.534;2022-08-19T11:39:28;98807.12;;;22.09;30.54
56689;BME280;42565;53.342;-1.534;2022-08-19T11:41:58;98806.94;;;21.83;30.34
56689;BME280;42565;53.342;-1.534;2022-08-19T11:44:25;98805.40;;;21.60;30.05
56689;BME280;42565;53.342;-1.534;2022-08-19T11:46:52;98798.88;;;22.67;29.71
56689;BME280;42565;53.342;-1.534;2022-08-19T11:49:20;98796.53;;;22.94;29.37
56689;BME280;42565;53.342;-1.534;2022-08-19T11:51:48;98798.76;;;21.86;29.25
56689;BME280;42565;53.342;-1.534;2022-08-19T11:54:16;98808.33;;;21.03;31.44
56689;BME280;42565;53.342;-1.534;2022-08-19T11:56:44;98807.30;;;21.61;30.97
56689;BME280;42565;53.342;-1.534;2022-08-19T11:59:11;98806.54;;;21.16;31.62
56689;BME280;42565;53.342;-1.534;2022-08-19T12:01:38;98799.60;;;20.69;31.88
56689;BME280;42565;53.342;-1.534;2022-08-19T12:04:05;98807.38;;;20.58;32.72
56689;BME280;42565;53.342;-1.534;2022-08-19T12:06:33;98811.45;;;21.84;32.14
56689;BME280;42565;53.342;-1.534;2022-08-19T12:09:04;98819.17;;;21.60;32.82
56689;BME280;42565;53.342;-1.534;2022-08-19T12:11:33;98822.69;;;21.95;32.43
56689;BME280;42565;53.342;-1.534;2022-08-19T12:14:01;98816.28;;;21.63;32.56
56689;BME280;42565;53.342;-1.534;2022-08-19T12:16:29;98822.47;;;21.06;33.58
56689;BME280;42565;53.342;-1.534;2022-08-19T12:18:58;98817.88;;;21.07;33.74
56689;BME280;42565;53.342;-1.534;2022-08-19T12:21:27;98816.79;;;20.23;35.37
56689;BME280;42565;53.342;-1.534;2022-08-19T12:23:56;98821.74;;;19.95;36.46
56689;BME280;42565;53.342;-1.534;2022-08-19T12:26:25;98825.02;;;20.34;36.25
56689;BME280;42565;53.342;-1.534;2022-08-19T12:28:53;98828.62;;;20.65;35.64
56689;BME280;42565;53.342;-1.534;2022-08-19T12:31:20;98822.09;;;20.23;35.48
56689;BME280;42565;53.342;-1.534;2022-08-19T12:33:48;98830.30;;;20.62;34.79
56689;BME280;42565;53.342;-1.534;2022-08-19T12:36:17;98832.03;;;20.70;33.80
56689;BME280;42565;53.342;-1.534;2022-08-19T12:38:45;98831.10;;;20.72;34.93
56689;BME280;42565;53.342;-1.534;2022-08-19T12:41:14;98828.13;;;20.69;34.42
56689;BME280;42565;53.342;-1.534;2022-08-19T12:43:41;98825.50;;;21.33;34.41
56689;BME280;42565;53.342;-1.534;2022-08-19T12:46:10;98824.00;;;21.07;33.29
56689;BME280;42565;53.342;-1.534;2022-08-19T12:48:38;98826.23;;;21.52;33.22
56689;BME280;42565;53.342;-1.534;2022-08-19T12:51:08;98823.57;;;21.28;33.20
56689;BME280;42565;53.342;-1.534;2022-08-19T12:53:35;98822.06;;;20.93;33.35
56689;BME280;42565;53.342;-1.534;2022-08-19T12:56:03;98830.30;;;20.44;34.14
56689;BME280;42565;53.342;-1.534;2022-08-19T12:58:36;98829.67;;;20.64;34.15